sensor_id;sensor_type;location;lat;lon;timestamp;pressure;altitude;pressure_sealevel;temperature;humidity
59971;BME280;45825;45.434;9.116;2023-09-19T00:00:59;99952.72;;;20.35;100.00
59971;BME280;45825;45.434;9.116;2023-09-19T00:03:24;99942.50;;;20.30;100.00
59971;BME280;45825;45.434;9.116;2023-09-19T00:05:53;99947.75;;;20.40;100.00
59971;BME280;45825;45.434;9.116;2023-09-19T00:08:20;99954.09;;;20.39;100.00
59971;BME280;45825;45.434;9.116;2023-09-19T00:10:50;99954.59;;;20.43;100.00
59971;BME280;45825;45.434;9.116;2023-09-19T00:13:15;99941.56;;;20.40;100.00
59971;BME280;45825;45.434;9.116;2023-09-19T00:15:43;99935.75;;;20.44;100.00
59971;BME280;45825;45.434;9.116;2023-09-19T00:18:13;99942.09;;;20.43;100.00
59971;BME280;45825;45.434;9.116;2023-09-19T00:20:41;99952.88;;;20.33;100.00
59971;BME280;45825;45.434;9.116;2023-09-19T00:23:08;99940.88;;;20.37;100.00
59971;BME280;45825;45.434;9.116;2023-09-19T00:25:34;99935.88;;;20.34;100.00
59971;BME280;45825;45.434;9.116;2023-09-19T00:28:01;99937.06;;;20.40;100.00
59971;BME280;45825;45.434;9.116;2023-09-19T00:30:26;99948.75;;;20.39;100.00
59971;BME280;45825;45.434;9.116;2023-09-19T00:32:52;99951.84;;;20.52;100.00
59971;BME280;45825;45.434;9.116;2023-09-19T00:35:18;99959.66;;;20.46;100.00
59971;BME280;45825;45.434;9.116;2023-09-19T00:37:44;99961.25;;;20.38;100.00
59971;BME280;45825;45.434;9.116;2023-09-19T00:40:10;99957.38;;;20.33;100.00
59971;BME280;45825;45.434;9.116;2023-09-19T00:42:44;99957.03;;;20.28;100.00
59971;BME280;45825;45.434;9.116;2023-09-19T00:45:11;99959.25;;;20.41;100.00
59971;BME280;45825;45.434;9.116;2023-09-19T00:47:50;99955.59;;;20.42;100.00
59971;BME280;45825;45.434;9.116;2023-09-19T00:50:20;99958.06;;;20.35;100.00
59971;BME280;45825;45.434;9.116;2023-09-19T00:52:47;99958.06;;;20.35;100.00
59971;BME280;45825;45.434;9.116;2023-09-19T00:55:15;99955.28;;;20.18;100.00
59971;BME280;45825;45.434;9.116;2023-09-19T00:57:41;99960.78;;;20.17;100.00
59971;BME280;45825;45.434;9.116;2023-09-19T01:00:08;99964.53;;;20.06;100.00
59971;BME280;45825;45.434;9.116;2023-09-19T01:02:37;99973.00;;;20.01;100.00
59971;BME280;45825;45.434;9.116;2023-09-19T01:05:02;99966.50;;;20.04;100.00
59971;BME280;45825;45.434;9.116;2023-09-19T01:07:30;99972.38;;;20.07;100.00
59971;BME280;45825;45.434;9.116;2023-09-19T01:09:57;99975.72;;;20.09;100.00
59971;BME280;45825;45.434;9.116;2023-09-19T01:15:43;99978.34;;;20.01;100.00
59971;BME280;45825;45.434;9.116;2023-09-19T01:21:15;99980.47;;;19.98;100.00
59971;BME280;45825;45.434;9.116;2023-09-19T01:27:02;99980.06;;;19.92;100.00
59971;BME280;45825;45.434;9.116;2023-09-19T01:29:46;99982.03;;;19.90;100.00
59971;BME280;45825;45.434;9.116;2023-09-19T01:32:19;99986.69;;;19.88;100.00
59971;BME280;45825;45.434;9.116;2023-09-19T01:34:50;99988.53;;;19.88;100.00
59971;BME280;45825;45.434;9.116;2023-09-19T01:37:19;99980.22;;;19.91;100.00
59971;BME280;45825;45.434;9.116;2023-09-19T01:39:50;99979.28;;;19.82;100.00
59971;BME280;45825;45.434;9.116;2023-09-19T01:51:05;99978.78;;;19.78;100.00
59971;BME280;45825;45.434;9.116;2023-09-19T01:53:57;99983.72;;;19.73;100.00
59971;BME280;45825;45.434;9.116;2023-09-19T01:59:05;99981.81;;;19.65;100.00
59971;BME280;45825;45.434;9.116;2023-09-19T02:01:32;99983.63;;;19.65;100.00
59971;BME280;45825;45.434;9.116;2023-09-19T02:03:58;99987.16;;;19.65;100.00
59971;BME280;45825;45.434;9.116;2023-09-19T02:06:24;99976.16;;;19.68;100.00
59971;BME280;45825;45.434;9.116;2023-09-19T02:08:52;99975.72;;;19.73;100.00
59971;BME280;45825;45.434;9.116;2023-09-19T02:11:18;99984.56;;;19.74;100.00
59971;BME280;45825;45.434;9.116;2023-09-19T02:13:44;99986.69;;;19.70;100.00
59971;BME280;45825;45.434;9.116;2023-09-19T02:16:09;99974.03;;;19.72;100.00
59971;BME280;45825;45.434;9.116;2023-09-19T02:18:36;99974.41;;;19.59;100.00
59971;BME280;45825;45.434;9.116;2023-09-19T02:21:02;99972.59;;;19.60;100.00
59971;BME280;45825;45.434;9.116;2023-09-19T02:23:27;99972.41;;;19.61;100.00
59971;BME280;45825;45.434;9.116;2023-09-19T02:25:53;99976.25;;;19.59;100.00
59971;BME280;45825;45.434;9.116;2023-09-19T02:28:19;99983.84;;;19.53;100.00
59971;BME280;45825;45.434;9.116;2023-09-19T02:30:47;99980.50;;;19.51;100.00
59971;BME280;45825;45.434;9.116;2023-09-19T02:33:13;99983.31;;;19.50;100.00
59971;BME280;45825;45.434;9.116;2023-09-19T02:35:39;99970.41;;;19.45;100.00
59971;BME280;45825;45.434;9.116;2023-09-19T02:38:04;99976.47;;;19.47;100.00
59971;BME280;45825;45.434;9.116;2023-09-19T02:40:31;99977.38;;;19.56;100.00
59971;BME280;45825;45.434;9.116;2023-09-19T02:42:57;99969.75;;;19.61;100.00
59971;BME280;45825;45.434;9.116;2023-09-19T02:45:24;99977.31;;;19.66;100.00
59971;BME280;45825;45.434;9.116;2023-09-19T02:47:50;99973.19;;;19.72;100.00
59971;BME280;45825;45.434;9.116;2023-09-19T02:50:15;99970.59;;;19.62;100.00
59971;BME280;45825;45.434;9.116;2023-09-19T02:52:45;99974.03;;;19.54;100.00
59971;BME280;45825;45.434;9.116;2023-09-19T02:55:14;99966.63;;;19.48;100.00
59971;BME280;45825;45.434;9.116;2023-09-19T02:57:46;99963.03;;;19.39;100.00
59971;BME280;45825;45.434;9.116;2023-09-19T03:00:12;99961.06;;;19.41;100.00
59971;BME280;45825;45.434;9.116;2023-09-19T03:02:37;99959.06;;;19.43;100.00
59971;BME280;45825;45.434;9.116;2023-09-19T03:05:05;99958.06;;;19.44;100.00
59971;BME280;45825;45.434;9.116;2023-09-19T03:07:31;99968.16;;;19.50;100.00
59971;BME280;45825;45.434;9.116;2023-09-19T03:09:56;99962.28;;;19.47;100.00
59971;BME280;45825;45.434;9.116;2023-09-19T03:12:22;99961.44;;;19.46;100.00
59971;BME280;45825;45.434;9.116;2023-09-19T03:14:48;99958.63;;;19.48;100.00
59971;BME280;45825;45.434;9.116;2023-09-19T03:17:13;99955.81;;;19.49;100.00
59971;BME280;45825;45.434;9.116;2023-09-19T03:19:40;99955.66;;;19.51;100.00
59971;BME280;45825;45.434;9.116;2023-09-19T03:22:05;99952.16;;;19.50;100.00
59971;BME280;45825;45.434;9.116;2023-09-19T03:24:30;99955.41;;;19.44;100.00
59971;BME280;45825;45.434;9.116;2023-09-19T03:26:57;99956.69;;;19.40;100.00
59971;BME280;45825;45.434;9.116;2023-09-19T03:29:22;99957.91;;;19.27;100.00
59971;BME280;45825;45.434;9.116;2023-09-19T03:31:48;99964.28;;;19.17;100.00
59971;BME280;45825;45.434;9.116;2023-09-19T03:34:13;99957.88;;;19.09;100.00
59971;BME280;45825;45.434;9.116;2023-09-19T03:36:38;99959.31;;;19.04;100.00
59971;BME280;45825;45.434;9.116;2023-09-19T03:39:05;99951.16;;;18.95;100.00
59971;BME280;45825;45.434;9.116;2023-09-19T03:41:31;99955.56;;;18.87;100.00
59971;BME280;45825;45.434;9.116;2023-09-19T03:43:58;99950.94;;;18.79;100.00
59971;BME280;45825;45.434;9.116;2023-09-19T03:46:23;99946.97;;;18.93;100.00
59971;BME280;45825;45.434;9.116;2023-09-19T03:48:50;99948.50;;;18.95;100.00
59971;BME280;45825;45.434;9.116;2023-09-19T03:51:15;99952.72;;;18.98;100.00
59971;BME280;45825;45.434;9.116;2023-09-19T03:53:41;99948.91;;;19.01;100.00
59971;BME280;45825;45.434;9.116;2023-09-19T03:56:06;99957.50;;;18.94;100.00
59971;BME280;45825;45.434;9.116;2023-09-19T03:58:33;99956.69;;;18.84;100.00
59971;BME280;45825;45.434;9.116;2023-09-19T04:01:00;99955.59;;;18.77;100.00
59971;BME280;45825;45.434;9.116;2023-09-19T04:03:25;99958.00;;;18.70;100.00
59971;BME280;45825;45.434;9.116;2023-09-19T04:05:59;99957.75;;;18.63;100.00
59971;BME280;45825;45.434;9.116;2023-09-19T04:08:25;99956.75;;;18.64;100.00
59971;BME280;45825;45.434;9.116;2023-09-19T04:10:50;99967.03;;;18.59;100.00
59971;BME280;45825;45.434;9.116;2023-09-19T04:13:16;99958.03;;;18.60;100.00
59971;BME280;45825;45.434;9.116;2023-09-19T04:15:41;99956.06;;;18.62;100.00
59971;BME280;45825;45.434;9.116;2023-09-19T04:18:07;99956.63;;;18.66;100.00
59971;BME280;45825;45.434;9.116;2023-09-19T04:20:32;99964.75;;;18.64;100.00
59971;BME280;45825;45.434;9.116;2023-09-19T04:22:58;99964.06;;;18.62;100.00
59971;BME280;45825;45.434;9.116;2023-09-19T04:25:25;99974.03;;;18.60;100.00
59971;BME280;45825;45.434;9.116;2023-09-19T04:27:52;99982.84;;;18.61;100.00
59971;BME280;45825;45.434;9.116;2023-09-19T04:30:18;99981.75;;;18.53;100.00
59971;BME280;45825;45.434;9.116;2023-09-19T04:32:43;99986.66;;;18.48;100.00
59971;BME280;45825;45.434;9.116;2023-09-19T04:35:10;99981.19;;;18.40;100.00
59971;BME280;45825;45.434;9.116;2023-09-19T04:37:38;99984.28;;;18.35;100.00
59971;BME280;45825;45.434;9.116;2023-09-19T04:40:08;99991.19;;;18.28;100.00
59971;BME280;45825;45.434;9.116;2023-09-19T04:42:42;99991.31;;;18.26;100.00
59971;BME280;45825;45.434;9.116;2023-09-19T04:45:08;99994.53;;;18.30;100.00
59971;BME280;45825;45.434;9.116;2023-09-19T04:47:38;99996.25;;;18.21;100.00
59971;BME280;45825;45.434;9.116;2023-09-19T04:50:06;100009.25;;;18.14;100.00
59971;BME280;45825;45.434;9.116;2023-09-19T04:52:32;100010.50;;;18.20;100.00
59971;BME280;45825;45.434;9.116;2023-09-19T04:54:57;100006.16;;;18.19;100.00
59971;BME280;45825;45.434;9.116;2023-09-19T04:57:22;100009.81;;;18.18;100.00
59971;BME280;45825;45.434;9.116;2023-09-19T04:59:48;100018.78;;;18.17;100.00
59971;BME280;45825;45.434;9.116;2023-09-19T05:02:13;100014.56;;;18.14;100.00
59971;BME280;45825;45.434;9.116;2023-09-19T05:04:38;100020.75;;;18.15;100.00
59971;BME280;45825;45.434;9.116;2023-09-19T05:07:04;100022.16;;;18.19;100.00
59971;BME280;45825;45.434;9.116;2023-09-19T05:09:29;100020.03;;;18.23;100.00
59971;BME280;45825;45.434;9.116;2023-09-19T05:11:55;100018.81;;;18.27;100.00
59971;BME280;45825;45.434;9.116;2023-09-19T05:14:21;100028.03;;;18.33;100.00
59971;BME280;45825;45.434;9.116;2023-09-19T05:16:47;100015.56;;;18.33;100.00
59971;BME280;45825;45.434;9.116;2023-09-19T05:19:13;100026.47;;;18.40;100.00
59971;BME280;45825;45.434;9.116;2023-09-19T05:21:38;100023.25;;;18.36;100.00
59971;BME280;45825;45.434;9.116;2023-09-19T05:24:05;100025.66;;;18.29;100.00
59971;BME280;45825;45.434;9.116;2023-09-19T05:26:32;100031.53;;;18.33;100.00
59971;BME280;45825;45.434;9.116;2023-09-19T05:28:57;100032.09;;;18.37;100.00
59971;BME280;45825;45.434;9.116;2023-09-19T05:31:22;100040.22;;;18.35;100.00
59971;BME280;45825;45.434;9.116;2023-09-19T05:33:48;100036.56;;;18.36;100.00
59971;BME280;45825;45.434;9.116;2023-09-19T05:36:14;100040.38;;;18.34;100.00
59971;BME280;45825;45.434;9.116;2023-09-19T05:38:41;100048.22;;;18.25;100.00
59971;BME280;45825;45.434;9.116;2023-09-19T05:41:08;100058.44;;;18.20;100.00
59971;BME280;45825;45.434;9.116;2023-09-19T05:43:34;100059.16;;;18.22;100.00
59971;BME280;45825;45.434;9.116;2023-09-19T05:46:02;100055.78;;;18.30;100.00
59971;BME280;45825;45.434;9.116;2023-09-19T05:48:28;100059.84;;;18.24;100.00
59971;BME280;45825;45.434;9.116;2023-09-19T05:50:53;100061.53;;;18.25;100.00
59971;BME280;45825;45.434;9.116;2023-09-19T05:53:18;100066.59;;;18.19;100.00
59971;BME280;45825;45.434;9.116;2023-09-19T05:55:43;100059.41;;;18.19;100.00
59971;BME280;45825;45.434;9.116;2023-09-19T05:58:09;100062.53;;;18.24;100.00
59971;BME280;45825;45.434;9.116;2023-09-19T06:00:35;100067.28;;;18.21;100.00
59971;BME280;45825;45.434;9.116;2023-09-19T06:03:01;100067.97;;;18.23;100.00
59971;BME280;45825;45.434;9.116;2023-09-19T06:05:27;100069.53;;;18.25;100.00
59971;BME280;45825;45.434;9.116;2023-09-19T06:07:53;100072.06;;;18.27;100.00
59971;BME280;45825;45.434;9.116;2023-09-19T06:10:19;100069.41;;;18.27;100.00
59971;BME280;45825;45.434;9.116;2023-09-19T06:12:46;100063.78;;;18.30;100.00
59971;BME280;45825;45.434;9.116;2023-09-19T06:15:12;100059.44;;;18.39;100.00
59971;BME280;45825;45.434;9.116;2023-09-19T06:17:51;100055.63;;;18.51;100.00
59971;BME280;45825;45.434;9.116;2023-09-19T06:20:16;100059.81;;;18.64;100.00
59971;BME280;45825;45.434;9.116;2023-09-19T06:22:43;100053.63;;;18.73;100.00
59971;BME280;45825;45.434;9.116;2023-09-19T06:25:13;100055.84;;;18.78;100.00
59971;BME280;45825;45.434;9.116;2023-09-19T06:27:49;100055.72;;;18.79;100.00
59971;BME280;45825;45.434;9.116;2023-09-19T06:30:17;100065.53;;;18.79;100.00
59971;BME280;45825;45.434;9.116;2023-09-19T06:32:43;100063.72;;;18.79;100.00
59971;BME280;45825;45.434;9.116;2023-09-19T06:35:13;100056.66;;;18.98;100.00
59971;BME280;45825;45.434;9.116;2023-09-19T06:37:39;100061.28;;;18.96;100.00
59971;BME280;45825;45.434;9.116;2023-09-19T06:40:11;100067.75;;;19.13;100.00
59971;BME280;45825;45.434;9.116;2023-09-19T06:42:51;100070.78;;;19.18;100.00
59971;BME280;45825;45.434;9.116;2023-09-19T06:45:18;100069.81;;;19.19;100.00
59971;BME280;45825;45.434;9.116;2023-09-19T06:47:48;100075.31;;;19.08;100.00
59971;BME280;45825;45.434;9.116;2023-09-19T06:50:20;100077.41;;;19.14;100.00
59971;BME280;45825;45.434;9.116;2023-09-19T06:52:48;100078.34;;;19.23;100.00
59971;BME280;45825;45.434;9.116;2023-09-19T06:55:15;100086.28;;;19.43;100.00
59971;BME280;45825;45.434;9.116;2023-09-19T06:57:44;100083.88;;;19.39;100.00
59971;BME280;45825;45.434;9.116;2023-09-19T07:00:10;100091.50;;;19.34;100.00
59971;BME280;45825;45.434;9.116;2023-09-19T07:02:41;100098.28;;;19.29;100.00
59971;BME280;45825;45.434;9.116;2023-09-19T07:05:07;100094.03;;;19.36;100.00
59971;BME280;45825;45.434;9.116;2023-09-19T07:07:32;100097.53;;;19.36;100.00
59971;BME280;45825;45.434;9.116;2023-09-19T07:10:00;100094.97;;;19.45;100.00
59971;BME280;45825;45.434;9.116;2023-09-19T07:12:26;100097.91;;;19.51;100.00
59971;BME280;45825;45.434;9.116;2023-09-19T07:14:51;100100.50;;;19.33;100.00
59971;BME280;45825;45.434;9.116;2023-09-19T07:17:16;100094.06;;;19.26;100.00
59971;BME280;45825;45.434;9.116;2023-09-19T07:19:44;100099.50;;;19.34;100.00
59971;BME280;45825;45.434;9.116;2023-09-19T07:22:09;100099.63;;;19.43;100.00
59971;BME280;45825;45.434;9.116;2023-09-19T07:24:34;100105.75;;;19.53;100.00
59971;BME280;45825;45.434;9.116;2023-09-19T07:27:02;100104.59;;;19.55;100.00
59971;BME280;45825;45.434;9.116;2023-09-19T07:29:27;100106.69;;;19.62;100.00
59971;BME280;45825;45.434;9.116;2023-09-19T07:31:52;100108.22;;;19.64;100.00
59971;BME280;45825;45.434;9.116;2023-09-19T07:34:18;100105.81;;;19.71;100.00
59971;BME280;45825;45.434;9.116;2023-09-19T07:36:43;100118.38;;;19.89;100.00
59971;BME280;45825;45.434;9.116;2023-09-19T07:39:09;100118.94;;;19.82;100.00
59971;BME280;45825;45.434;9.116;2023-09-19T07:41:34;100124.38;;;19.91;100.00
59971;BME280;45825;45.434;9.116;2023-09-19T07:43:59;100126.47;;;19.97;100.00
59971;BME280;45825;45.434;9.116;2023-09-19T07:46:25;100126.03;;;20.02;100.00
59971;BME280;45825;45.434;9.116;2023-09-19T07:48:51;100124.66;;;19.98;100.00
59971;BME280;45825;45.434;9.116;2023-09-19T07:51:17;100130.53;;;20.01;100.00
59971;BME280;45825;45.434;9.116;2023-09-19T07:53:42;100127.16;;;19.99;100.00
59971;BME280;45825;45.434;9.116;2023-09-19T07:56:09;100115.78;;;19.97;100.00
59971;BME280;45825;45.434;9.116;2023-09-19T07:58:35;100113.44;;;19.94;100.00
59971;BME280;45825;45.434;9.116;2023-09-19T08:01:06;100134.34;;;19.99;100.00
59971;BME280;45825;45.434;9.116;2023-09-19T08:03:33;100126.97;;;20.10;100.00
59971;BME280;45825;45.434;9.116;2023-09-19T08:06:00;100131.56;;;20.18;100.00
59971;BME280;45825;45.434;9.116;2023-09-19T08:08:26;100126.59;;;20.23;100.00
59971;BME280;45825;45.434;9.116;2023-09-19T08:10:55;100125.00;;;20.31;100.00
59971;BME280;45825;45.434;9.116;2023-09-19T08:13:22;100124.22;;;20.38;100.00
59971;BME280;45825;45.434;9.116;2023-09-19T08:15:48;100126.97;;;20.47;100.00
59971;BME280;45825;45.434;9.116;2023-09-19T08:18:17;100122.47;;;20.47;100.00
59971;BME280;45825;45.434;9.116;2023-09-19T08:20:42;100132.22;;;20.57;100.00
59971;BME280;45825;45.434;9.116;2023-09-19T08:23:08;100128.41;;;20.59;100.00
59971;BME280;45825;45.434;9.116;2023-09-19T08:25:34;100135.50;;;20.69;100.00
59971;BME280;45825;45.434;9.116;2023-09-19T08:28:04;100130.31;;;20.67;100.00
59971;BME280;45825;45.434;9.116;2023-09-19T08:30:31;100126.66;;;20.68;100.00
59971;BME280;45825;45.434;9.116;2023-09-19T08:32:57;100131.16;;;20.68;100.00
59971;BME280;45825;45.434;9.116;2023-09-19T08:35:29;100126.72;;;20.76;100.00
59971;BME280;45825;45.434;9.116;2023-09-19T08:37:54;100139.50;;;20.83;100.00
59971;BME280;45825;45.434;9.116;2023-09-19T08:40:20;100132.72;;;20.97;100.00
59971;BME280;45825;45.434;9.116;2023-09-19T08:42:53;100134.31;;;21.07;100.00
59971;BME280;45825;45.434;9.116;2023-09-19T08:45:21;100130.72;;;21.17;100.00
59971;BME280;45825;45.434;9.116;2023-09-19T08:50:39;100139.47;;;21.27;100.00
59971;BME280;45825;45.434;9.116;2023-09-19T08:53:11;100134.03;;;21.45;100.00
59971;BME280;45825;45.434;9.116;2023-09-19T08:55:40;100131.41;;;21.54;100.00
59971;BME280;45825;45.434;9.116;2023-09-19T08:58:10;100136.28;;;21.58;100.00
59971;BME280;45825;45.434;9.116;2023-09-19T09:00:36;100135.09;;;21.61;100.00
59971;BME280;45825;45.434;9.116;2023-09-19T09:03:02;100140.72;;;21.76;100.00
59971;BME280;45825;45.434;9.116;2023-09-19T09:05:29;100136.94;;;21.87;100.00
59971;BME280;45825;45.434;9.116;2023-09-19T09:07:56;100146.97;;;21.93;100.00
59971;BME280;45825;45.434;9.116;2023-09-19T09:10:22;100145.81;;;21.96;100.00
59971;BME280;45825;45.434;9.116;2023-09-19T09:12:51;100147.84;;;22.02;100.00
59971;BME280;45825;45.434;9.116;2023-09-19T09:15:18;100135.66;;;22.08;100.00
59971;BME280;45825;45.434;9.116;2023-09-19T09:17:50;100140.69;;;22.19;100.00
59971;BME280;45825;45.434;9.116;2023-09-19T09:20:19;100129.50;;;22.24;100.00
59971;BME280;45825;45.434;9.116;2023-09-19T09:22:55;100136.53;;;22.41;100.00
59971;BME280;45825;45.434;9.116;2023-09-19T09:25:51;100136.41;;;22.51;100.00
59971;BME280;45825;45.434;9.116;2023-09-19T09:28:21;100124.84;;;22.59;100.00
59971;BME280;45825;45.434;9.116;2023-09-19T09:30:47;100129.22;;;22.68;100.00
59971;BME280;45825;45.434;9.116;2023-09-19T09:33:13;100131.72;;;22.78;100.00
59971;BME280;45825;45.434;9.116;2023-09-19T09:35:56;100129.03;;;22.95;100.00
59971;BME280;45825;45.434;9.116;2023-09-19T09:38:25;100139.34;;;23.23;100.00
59971;BME280;45825;45.434;9.116;2023-09-19T09:40:58;100137.19;;;23.35;100.00
59971;BME280;45825;45.434;9.116;2023-09-19T09:43:34;100129.25;;;23.50;100.00
59971;BME280;45825;45.434;9.116;2023-09-19T09:46:20;100124.53;;;23.60;100.00
59971;BME280;45825;45.434;9.116;2023-09-19T09:48:56;100134.34;;;23.76;100.00
59971;BME280;45825;45.434;9.116;2023-09-19T09:51:41;100126.03;;;23.94;100.00
59971;BME280;45825;45.434;9.116;2023-09-19T09:54:23;100125.03;;;23.95;100.00
59971;BME280;45825;45.434;9.116;2023-09-19T09:56:53;100127.09;;;24.17;100.00
59971;BME280;45825;45.434;9.116;2023-09-19T09:59:50;100130.16;;;24.37;100.00
59971;BME280;45825;45.434;9.116;2023-09-19T10:02:20;100127.31;;;24.77;100.00
59971;BME280;45825;45.434;9.116;2023-09-19T10:04:53;100121.09;;;25.15;100.00
59971;BME280;45825;45.434;9.116;2023-09-19T10:07:45;100121.75;;;25.77;100.00
59971;BME280;45825;45.434;9.116;2023-09-19T10:10:39;100113.25;;;25.95;100.00
59971;BME280;45825;45.434;9.116;2023-09-19T10:13:12;100116.69;;;26.47;100.00
59971;BME280;45825;45.434;9.116;2023-09-19T10:15:39;100122.47;;;26.66;100.00
59971;BME280;45825;45.434;9.116;2023-09-19T10:18:14;100114.22;;;26.96;100.00
59971;BME280;45825;45.434;9.116;2023-09-19T10:20:44;100108.56;;;27.61;100.00
59971;BME280;45825;45.434;9.116;2023-09-19T10:23:12;100110.84;;;28.20;100.00
59971;BME280;45825;45.434;9.116;2023-09-19T10:25:39;100116.09;;;28.89;100.00
59971;BME280;45825;45.434;9.116;2023-09-19T10:28:09;100114.78;;;29.25;100.00
59971;BME280;45825;45.434;9.116;2023-09-19T10:30:41;100122.75;;;28.93;100.00
59971;BME280;45825;45.434;9.116;2023-09-19T10:33:11;100123.13;;;29.10;100.00
59971;BME280;45825;45.434;9.116;2023-09-19T10:35:42;100123.72;;;29.33;100.00
59971;BME280;45825;45.434;9.116;2023-09-19T10:38:10;100111.69;;;29.81;100.00
59971;BME280;45825;45.434;9.116;2023-09-19T10:40:37;100116.06;;;30.21;100.00
59971;BME280;45825;45.434;9.116;2023-09-19T10:43:06;100104.34;;;30.52;100.00
59971;BME280;45825;45.434;9.116;2023-09-19T10:45:33;100112.66;;;30.83;98.63
59971;BME280;45825;45.434;9.116;2023-09-19T10:48:00;100108.31;;;31.57;69.42
59971;BME280;45825;45.434;9.116;2023-09-19T10:50:32;100101.22;;;31.56;66.37
59971;BME280;45825;45.434;9.116;2023-09-19T10:53:02;100097.56;;;32.11;61.55
59971;BME280;45825;45.434;9.116;2023-09-19T10:55:31;100096.94;;;32.40;60.60
59971;BME280;45825;45.434;9.116;2023-09-19T10:57:57;100093.06;;;32.59;56.73
59971;BME280;45825;45.434;9.116;2023-09-19T11:00:53;100094.81;;;31.69;57.10
59971;BME280;45825;45.434;9.116;2023-09-19T11:03:23;100094.13;;;32.70;55.47
59971;BME280;45825;45.434;9.116;2023-09-19T11:25:46;100086.53;;;32.72;48.58
59971;BME280;45825;45.434;9.116;2023-09-19T11:30:50;100077.75;;;33.71;49.04
59971;BME280;45825;45.434;9.116;2023-09-19T11:33:21;100073.41;;;33.17;48.32
59971;BME280;45825;45.434;9.116;2023-09-19T11:41:41;100064.31;;;33.40;48.66
59971;BME280;45825;45.434;9.116;2023-09-19T11:49:16;100063.94;;;32.72;49.17
59971;BME280;45825;45.434;9.116;2023-09-19T11:51:45;100055.09;;;33.70;48.73
59971;BME280;45825;45.434;9.116;2023-09-19T11:54:13;100061.41;;;33.71;47.40
59971;BME280;45825;45.434;9.116;2023-09-19T11:56:49;100054.78;;;33.26;48.60
59971;BME280;45825;45.434;9.116;2023-09-19T11:59:29;100057.97;;;33.64;48.52
59971;BME280;45825;45.434;9.116;2023-09-19T12:04:38;100056.13;;;32.40;51.46
59971;BME280;45825;45.434;9.116;2023-09-19T12:07:08;100053.38;;;32.87;48.51
59971;BME280;45825;45.434;9.116;2023-09-19T12:09:41;100047.06;;;32.03;50.86
59971;BME280;45825;45.434;9.116;2023-09-19T12:12:09;100049.16;;;31.89;51.63
59971;BME280;45825;45.434;9.116;2023-09-19T12:14:38;100045.94;;;32.95;50.16
59971;BME280;45825;45.434;9.116;2023-09-19T12:17:04;100043.72;;;31.21;50.60
59971;BME280;45825;45.434;9.116;2023-09-19T12:19:32;100043.81;;;30.52;54.36
59971;BME280;45825;45.434;9.116;2023-09-19T12:22:00;100036.31;;;32.09;51.77
59971;BME280;45825;45.434;9.116;2023-09-19T12:24:32;100038.84;;;32.70;50.37
59971;BME280;45825;45.434;9.116;2023-09-19T12:27:01;100037.59;;;31.94;48.86
59971;BME280;45825;45.434;9.116;2023-09-19T12:29:27;100028.91;;;31.24;50.63
59971;BME280;45825;45.434;9.116;2023-09-19T12:31:57;100026.28;;;32.33;50.45
59971;BME280;45825;45.434;9.116;2023-09-19T12:34:30;100028.56;;;31.82;50.42
59971;BME280;45825;45.434;9.116;2023-09-19T12:37:12;100025.69;;;31.46;49.41
59971;BME280;45825;45.434;9.116;2023-09-19T12:39:49;100034.75;;;31.02;52.27
59971;BME280;45825;45.434;9.116;2023-09-19T12:42:18;100029.63;;;30.50;51.94
59971;BME280;45825;45.434;9.116;2023-09-19T12:44:51;100002.94;;;30.21;51.80
59971;BME280;45825;45.434;9.116;2023-09-19T12:47:27;100019.53;;;32.24;50.28
59971;BME280;45825;45.434;9.116;2023-09-19T12:50:12;100020.41;;;31.82;49.29
59971;BME280;45825;45.434;9.116;2023-09-19T12:52:49;100015.66;;;30.90;50.70
59971;BME280;45825;45.434;9.116;2023-09-19T12:55:21;100015.91;;;31.57;50.01
59971;BME280;45825;45.434;9.116;2023-09-19T12:58:13;100012.72;;;30.48;51.31
59971;BME280;45825;45.434;9.116;2023-09-19T13:00:45;100011.59;;;31.00;50.56
59971;BME280;45825;45.434;9.116;2023-09-19T13:05:57;100006.47;;;31.59;49.63
59971;BME280;45825;45.434;9.116;2023-09-19T13:11:04;100010.56;;;31.50;48.97
59971;BME280;45825;45.434;9.116;2023-09-19T13:13:45;100004.13;;;30.76;51.88
59971;BME280;45825;45.434;9.116;2023-09-19T13:16:14;100003.00;;;31.52;49.61
59971;BME280;45825;45.434;9.116;2023-09-19T13:18:49;100007.16;;;31.55;49.65
59971;BME280;45825;45.434;9.116;2023-09-19T13:21:30;100001.84;;;31.29;49.13
59971;BME280;45825;45.434;9.116;2023-09-19T13:24:21;99998.19;;;30.86;49.81
59971;BME280;45825;45.434;9.116;2023-09-19T13:26:50;99999.03;;;31.36;47.96
59971;BME280;45825;45.434;9.116;2023-09-19T13:29:16;99993.13;;;32.24;47.58
59971;BME280;45825;45.434;9.116;2023-09-19T13:31:53;99984.66;;;31.78;49.98
59971;BME280;45825;45.434;9.116;2023-09-19T13:34:19;99982.78;;;31.17;49.10
59971;BME280;45825;45.434;9.116;2023-09-19T13:36:45;99992.00;;;30.79;48.97
59971;BME280;45825;45.434;9.116;2023-09-19T13:39:13;99993.56;;;30.87;49.54
59971;BME280;45825;45.434;9.116;2023-09-19T13:41:40;99986.19;;;30.75;49.31
59971;BME280;45825;45.434;9.116;2023-09-19T13:44:06;99986.78;;;30.08;51.03
59971;BME280;45825;45.434;9.116;2023-09-19T13:46:31;99981.91;;;30.17;53.40
59971;BME280;45825;45.434;9.116;2023-09-19T13:48:58;99980.16;;;30.29;51.24
59971;BME280;45825;45.434;9.116;2023-09-19T13:51:25;99978.41;;;30.79;50.84
59971;BME280;45825;45.434;9.116;2023-09-19T13:53:51;99970.94;;;30.74;52.00
59971;BME280;45825;45.434;9.116;2023-09-19T13:56:16;99973.94;;;31.22;48.93
59971;BME280;45825;45.434;9.116;2023-09-19T13:58:42;99975.25;;;30.82;50.01